Time;durP1;ratioP1;P1;durP2;ratioP2;P2;SDS_P1;SDS_P2;PMS_P1;PMS_P2;Temp;Humidity;BMP_temperature;BMP_pressure;BME280_temperature;BME280_humidity;BME280_pressure;Samples;Min_cycle;Max_cycle;Signal;HPM_P1;HPM_P2
2023/10/03 00:00:32;;;;;;;4.45;2.70;;;26.00;42.90;;;;;;5051981;28;20060;-72
2023/10/03 00:03:00;;;;;;;4.60;2.63;;;26.10;43.50;;;;;;5034227;28;20491;-71
2023/10/03 00:05:30;;;;;;;4.95;2.60;;;26.10;41.50;;;;;;5051855;28;20049;-71
2023/10/03 00:07:58;;;;;;;5.40;2.80;;;26.10;41.30;;;;;;5051956;28;20025;-71
2023/10/03 00:10:26;;;;;;;7.82;2.70;;;26.30;42.20;;;;;;5034406;28;20025;-70
2023/10/03 00:12:53;;;;;;;5.78;2.72;;;26.30;40.00;;;;;;5034662;28;20510;-71
2023/10/03 00:15:24;;;;;;;5.72;2.70;;;26.40;40.60;;;;;;5052374;28;20044;-70
2023/10/03 00:17:51;;;;;;;5.55;2.63;;;26.40;40.40;;;;;;5051913;28;20048;-70
2023/10/03 00:20:19;;;;;;;4.95;2.70;;;26.50;39.40;;;;;;5052156;28;20037;-70
2023/10/03 00:22:50;;;;;;;4.35;2.50;;;26.50;38.50;;;;;;5034298;28;20107;-71
2023/10/03 00:25:18;;;;;;;6.05;2.75;;;26.50;38.80;;;;;;5034546;28;20163;-71
2023/10/03 00:27:51;;;;;;;5.00;2.53;;;26.60;38.80;;;;;;5051722;28;20029;-71
2023/10/03 00:30:25;;;;;;;5.05;2.28;;;26.70;39.20;;;;;;5051861;28;20424;-71
2023/10/03 00:33:02;;;;;;;4.47;2.50;;;26.80;39.00;;;;;;5051625;28;20037;-71
2023/10/03 00:35:29;;;;;;;4.47;2.60;;;26.80;38.00;;;;;;5051973;28;20030;-71
2023/10/03 00:37:56;;;;;;;4.75;2.22;;;27.00;39.10;;;;;;5051519;28;20104;-71
2023/10/03 00:42:59;;;;;;;6.85;2.70;;;27.10;40.30;;;;;;5051752;28;20155;-71
2023/10/03 00:45:30;;;;;;;6.13;2.63;;;27.10;39.20;;;;;;5051873;28;20095;-71
2023/10/03 00:48:11;;;;;;;8.75;2.70;;;27.10;39.10;;;;;;5051711;28;20419;-71
2023/10/03 00:50:38;;;;;;;5.00;2.58;;;27.20;39.70;;;;;;5035803;28;20025;-71
2023/10/03 00:53:10;;;;;;;6.53;2.95;;;27.20;39.30;;;;;;5017617;28;20099;-71
2023/10/03 00:55:39;;;;;;;3.92;2.65;;;27.20;37.80;;;;;;5051670;28;20513;-70
2023/10/03 00:58:07;;;;;;;6.10;2.90;;;27.30;38.10;;;;;;5051847;28;20057;-71
2023/10/03 01:00:50;;;;;;;6.63;2.77;;;27.30;38.40;;;;;;5052728;28;20041;-71
2023/10/03 01:03:39;;;;;;;5.00;2.67;;;27.30;38.60;;;;;;5040082;28;20036;-71
2023/10/03 01:06:11;;;;;;;4.63;2.73;;;27.40;38.70;;;;;;5055685;28;20462;-71
2023/10/03 01:08:46;;;;;;;4.32;2.60;;;27.40;37.90;;;;;;5055400;28;20258;-71
2023/10/03 01:11:24;;;;;;;5.07;2.70;;;27.40;38.30;;;;;;5055581;28;20499;-71
2023/10/03 01:14:00;;;;;;;5.72;2.65;;;27.50;39.80;;;;;;5055169;28;20029;-71
2023/10/03 01:18:58;;;;;;;7.80;2.70;;;27.60;38.80;;;;;;5055354;28;20033;-71
2023/10/03 01:21:26;;;;;;;4.60;2.55;;;27.70;38.30;;;;;;5055116;28;20053;-71
2023/10/03 01:26:39;;;;;;;8.80;2.75;;;27.80;36.80;;;;;;5055050;28;20128;-71
2023/10/03 01:29:24;;;;;;;3.45;2.70;;;27.80;37.70;;;;;;5055459;28;20075;-71
2023/10/03 01:32:10;;;;;;;3.97;2.70;;;27.80;37.70;;;;;;5055211;28;20052;-71
2023/10/03 01:34:55;;;;;;;3.03;2.70;;;27.80;36.80;;;;;;5054939;28;20431;-71
2023/10/03 01:37:23;;;;;;;4.82;2.80;;;28.00;37.00;;;;;;5054995;28;20033;-71
2023/10/03 01:39:50;;;;;;;4.10;3.30;;;28.00;37.00;;;;;;5054655;28;20028;-71
2023/10/03 01:42:18;;;;;;;5.03;2.65;;;28.10;37.60;;;;;;5054933;28;20033;-72
2023/10/03 01:44:45;;;;;;;6.15;2.63;;;28.20;36.20;;;;;;5054803;28;20052;-71
2023/10/03 01:47:13;;;;;;;4.57;2.75;;;28.30;35.80;;;;;;5054839;28;20029;-71
2023/10/03 01:49:42;;;;;;;5.28;2.75;;;28.20;35.40;;;;;;5054452;28;20140;-71
2023/10/03 01:52:09;;;;;;;5.53;2.85;;;28.30;35.70;;;;;;5054302;28;20421;-71
2023/10/03 01:54:36;;;;;;;26.85;4.10;;;28.30;36.40;;;;;;5054320;28;20041;-71
2023/10/03 01:57:03;;;;;;;16.00;3.40;;;28.40;36.80;;;;;;5054519;28;20484;-71
2023/10/03 01:59:30;;;;;;;14.55;3.65;;;28.40;37.40;;;;;;5054436;28;20033;-71
2023/10/03 02:02:16;;;;;;;3.72;2.78;;;28.60;36.90;;;;;;5054255;28;20033;-71
2023/10/03 02:08:25;;;;;;;5.10;2.63;;;28.70;35.90;;;;;;5054700;28;20124;-71
2023/10/03 02:10:53;;;;;;;5.32;2.47;;;28.60;34.20;;;;;;5054412;28;20036;-72
2023/10/03 02:13:23;;;;;;;4.47;2.40;;;28.70;35.20;;;;;;5052723;28;20025;-71
2023/10/03 02:15:54;;;;;;;6.95;2.67;;;28.80;34.10;;;;;;5054179;28;20037;-72
2023/10/03 02:18:22;;;;;;;7.85;2.78;;;28.80;33.50;;;;;;5054081;28;20025;-71
2023/10/03 02:20:59;;;;;;;6.70;2.60;;;29.00;32.90;;;;;;5054167;28;20037;-72
2023/10/03 02:23:27;;;;;;;6.68;2.58;;;29.00;32.30;;;;;;5054005;28;20029;-71
2023/10/03 02:25:55;;;;;;;5.82;2.50;;;29.00;31.60;;;;;;5053829;28;20124;-71
2023/10/03 02:28:26;;;;;;;8.05;2.72;;;29.00;31.00;;;;;;5054117;28;20060;-72
2023/10/03 02:30:55;;;;;;;4.50;2.25;;;29.10;30.90;;;;;;5036735;28;20037;-72
2023/10/03 02:33:23;;;;;;;10.18;2.60;;;29.10;30.40;;;;;;5053716;28;20033;-72
2023/10/03 02:35:53;;;;;;;4.18;2.15;;;29.10;30.70;;;;;;5053683;28;20107;-73
2023/10/03 02:38:25;;;;;;;3.38;2.40;;;29.20;29.90;;;;;;5053590;28;20422;-71
2023/10/03 02:40:59;;;;;;;3.30;2.30;;;29.20;29.70;;;;;;5036188;28;20039;-71
2023/10/03 02:43:34;;;;;;;4.45;2.35;;;29.10;29.10;;;;;;5053484;28;20029;-72
2023/10/03 02:46:04;;;;;;;4.22;1.92;;;29.20;28.50;;;;;;5053323;28;20460;-71
2023/10/03 02:48:33;;;;;;;7.20;2.63;;;29.20;29.10;;;;;;5053606;28;20047;-72
2023/10/03 02:51:01;;;;;;;5.57;2.40;;;29.30;30.00;;;;;;5053500;28;20029;-72
2023/10/03 02:53:29;;;;;;;3.72;2.30;;;29.30;30.50;;;;;;5052966;28;20052;-71
2023/10/03 02:55:56;;;;;;;5.57;2.10;;;29.40;30.20;;;;;;5053240;28;20028;-72
2023/10/03 02:58:23;;;;;;;4.57;2.40;;;29.40;29.70;;;;;;5053422;28;20036;-72
2023/10/03 03:00:54;;;;;;;5.63;2.60;;;29.30;29.50;;;;;;5053342;28;20033;-72
2023/10/03 03:03:23;;;;;;;2.85;2.20;;;29.40;30.80;;;;;;5053331;28;20430;-72
2023/10/03 03:05:50;;;;;;;4.45;2.13;;;29.40;29.40;;;;;;5035877;28;20041;-72
2023/10/03 03:10:56;;;;;;;3.97;2.00;;;29.50;30.00;;;;;;5052673;28;20060;-71
2023/10/03 03:13:24;;;;;;;2.97;2.00;;;29.50;28.40;;;;;;5035789;28;20033;-72
2023/10/03 03:15:53;;;;;;;3.75;2.17;;;29.50;28.10;;;;;;5035722;28;20163;-72
2023/10/03 03:18:21;;;;;;;5.85;2.42;;;29.50;27.30;;;;;;5053043;28;20029;-72
2023/10/03 03:20:57;;;;;;;5.50;1.90;;;29.50;28.00;;;;;;5052882;28;20041;-72
2023/10/03 03:23:30;;;;;;;6.75;2.25;;;29.50;27.70;;;;;;5052447;28;20116;-72
2023/10/03 03:28:44;;;;;;;6.53;2.20;;;29.50;28.80;;;;;;5052924;28;20099;-72
2023/10/03 03:31:32;;;;;;;6.00;2.28;;;29.60;30.00;;;;;;5052661;28;20025;-71
2023/10/03 03:34:02;;;;;;;6.32;2.35;;;29.60;29.20;;;;;;5052583;28;20029;-72
2023/10/03 03:36:30;;;;;;;4.55;2.20;;;29.70;29.40;;;;;;5052924;28;20379;-72
2023/10/03 03:39:05;;;;;;;2.40;1.83;;;29.70;28.50;;;;;;5052816;28;20036;-72
2023/10/03 03:41:33;;;;;;;2.70;2.15;;;29.70;28.20;;;;;;5052466;28;20033;-72
2023/10/03 03:44:00;;;;;;;5.13;2.03;;;29.70;27.90;;;;;;5052392;28;20041;-72
2023/10/03 03:46:29;;;;;;;4.63;2.15;;;29.60;28.30;;;;;;5052617;28;20043;-72
2023/10/03 03:48:58;;;;;;;3.75;2.17;;;29.70;28.40;;;;;;5052194;28;20044;-72
2023/10/03 03:51:25;;;;;;;5.35;2.22;;;29.70;28.40;;;;;;5034794;28;20045;-72
2023/10/03 03:53:53;;;;;;;9.32;2.47;;;29.80;28.70;;;;;;5052857;28;20037;-72
2023/10/03 03:56:20;;;;;;;4.78;2.47;;;29.80;28.50;;;;;;5052558;28;20120;-72
2023/10/03 03:58:48;;;;;;;4.30;2.33;;;29.80;29.60;;;;;;5052210;28;20033;-72
2023/10/03 04:01:19;;;;;;;4.85;2.40;;;29.80;29.10;;;;;;5052023;28;20032;-72
2023/10/03 04:03:51;;;;;;;3.80;2.20;;;29.80;28.90;;;;;;5052132;28;20110;-71
2023/10/03 04:06:21;;;;;;;5.90;2.60;;;29.80;28.90;;;;;;5019179;28;20025;-72
2023/10/03 04:08:48;;;;;;;10.52;2.60;;;29.80;28.40;;;;;;5052697;28;20033;-72
2023/10/03 04:11:16;;;;;;;5.72;2.20;;;29.90;28.70;;;;;;5052040;28;20052;-72
2023/10/03 04:13:55;;;;;;;8.10;2.35;;;29.80;28.10;;;;;;5052040;28;20036;-71
2023/10/03 04:16:26;;;;;;;;;;;29.80;28.50;;;;;;5052665;28;20029;-72
2023/10/03 04:18:53;;;;;;;5.93;2.13;;;29.80;28.70;;;;;;5052065;28;19905;-72
2023/10/03 04:21:20;;;;;;;5.95;2.28;;;29.80;28.30;;;;;;5052154;28;20041;-72
2023/10/03 04:23:49;;;;;;;6.50;2.60;;;29.80;28.40;;;;;;5051977;28;20061;-72
2023/10/03 04:26:16;;;;;;;3.97;2.20;;;29.80;28.40;;;;;;5052077;28;20044;-72
2023/10/03 04:28:44;;;;;;;3.53;2.03;;;29.80;28.50;;;;;;5034049;28;20040;-72
2023/10/03 04:31:11;;;;;;;10.38;2.80;;;29.80;28.00;;;;;;5051960;28;20415;-71
2023/10/03 04:33:38;;;;;;;2.78;2.10;;;29.90;28.50;;;;;;5051905;28;20435;-71
2023/10/03 04:36:09;;;;;;;5.20;2.17;;;29.90;28.20;;;;;;5053939;28;20029;-71
2023/10/03 04:38:36;;;;;;;3.78;2.25;;;29.90;28.00;;;;;;5056190;28;20036;-72
2023/10/03 04:41:07;;;;;;;9.52;2.47;;;29.90;27.90;;;;;;5056086;28;20043;-72
2023/10/03 04:43:34;;;;;;;7.43;2.80;;;29.90;28.20;;;;;;5055659;28;20478;-72
2023/10/03 04:46:02;;;;;;;6.47;2.50;;;30.00;27.80;;;;;;5056037;28;20040;-72
2023/10/03 04:48:30;;;;;;;3.05;2.50;;;30.00;28.60;;;;;;5055661;28;20044;-72
2023/10/03 04:50:59;;;;;;;8.23;2.10;;;30.00;28.10;;;;;;5055586;28;20067;-72
2023/10/03 04:53:26;;;;;;;6.20;2.43;;;30.00;28.00;;;;;;5055555;28;20502;-72
2023/10/03 04:55:53;;;;;;;2.42;2.15;;;30.00;28.20;;;;;;5055596;28;20159;-72
2023/10/03 04:58:21;;;;;;;4.85;2.22;;;30.00;27.40;;;;;;5038051;28;20541;-72
2023/10/03 05:00:49;;;;;;;3.92;2.15;;;30.00;27.00;;;;;;5055353;28;20037;-72
2023/10/03 05:03:19;;;;;;;4.28;2.53;;;29.90;26.60;;;;;;5055581;28;20033;-72
2023/10/03 05:05:48;;;;;;;7.53;2.22;;;30.00;26.90;;;;;;5055478;28;20134;-73
2023/10/03 05:08:17;;;;;;;3.72;2.40;;;30.00;26.50;;;;;;5037701;28;20052;-72
2023/10/03 05:10:45;;;;;;;5.75;2.17;;;30.20;25.50;;;;;;5055395;28;20037;-72
2023/10/03 05:13:12;;;;;;;5.63;2.13;;;30.20;25.80;;;;;;5055536;28;20495;-72
2023/10/03 05:15:40;;;;;;;5.20;2.38;;;30.10;25.80;;;;;;5055056;28;20036;-72
2023/10/03 05:18:08;;;;;;;3.63;2.30;;;30.10;26.00;;;;;;5055270;28;20502;-72
2023/10/03 05:20:37;;;;;;;2.67;2.10;;;30.10;26.30;;;;;;5054887;28;20167;-72
2023/10/03 05:23:04;;;;;;;;;;;30.00;26.20;;;;;;5055477;28;20061;-73
2023/10/03 05:25:37;;;;;;;6.97;2.92;;;29.90;26.40;;;;;;5054994;28;19972;-72
2023/10/03 05:28:10;;;;;;;50.25;6.72;;;29.80;27.50;;;;;;5055208;28;20060;-72
2023/10/03 05:30:38;;;;;;;14.80;4.20;;;29.70;34.40;;;;;;5054969;28;20103;-72
2023/10/03 05:33:06;;;;;;;13.65;5.43;;;29.50;36.50;;;;;;5037172;28;20033;-73
2023/10/03 05:35:33;;;;;;;14.70;4.90;;;29.30;39.30;;;;;;5055339;28;20033;-73
2023/10/03 05:38:01;;;;;;;10.82;5.10;;;29.10;40.10;;;;;;5055156;28;20024;-72
2023/10/03 05:40:29;;;;;;;15.43;4.60;;;28.90;41.00;;;;;;5054167;28;20039;-72
2023/10/03 05:42:57;;;;;;;14.23;5.30;;;28.70;41.20;;;;;;5054811;28;20029;-72
2023/10/03 05:45:25;;;;;;;14.77;5.00;;;28.60;41.50;;;;;;5054367;28;20049;-72
2023/10/03 05:47:53;;;;;;;13.65;4.60;;;28.40;42.60;;;;;;5054183;28;20290;-73
2023/10/03 05:50:24;;;;;;;13.50;4.97;;;28.30;42.20;;;;;;5054618;28;20472;-72
2023/10/03 05:52:51;;;;;;;18.13;5.05;;;28.30;42.40;;;;;;5054426;28;20053;-72
2023/10/03 05:55:18;;;;;;;18.35;5.32;;;28.20;43.00;;;;;;5054539;28;20032;-72
2023/10/03 05:57:46;;;;;;;14.70;5.38;;;28.10;42.70;;;;;;5054175;28;20092;-72
2023/10/03 06:00:17;;;;;;;19.50;5.43;;;28.00;42.90;;;;;;5054557;28;20029;-72
2023/10/03 06:02:47;;;;;;;14.48;5.50;;;27.90;43.70;;;;;;5021127;28;20116;-72
2023/10/03 06:05:17;;;;;;;16.90;5.15;;;27.80;43.40;;;;;;5054379;28;20131;-72
2023/10/03 06:07:45;;;;;;;14.77;5.38;;;27.70;43.70;;;;;;5054092;28;20072;-72
2023/10/03 06:10:15;;;;;;;15.50;5.25;;;27.60;44.00;;;;;;5053996;28;20037;-72
2023/10/03 06:12:43;;;;;;;17.77;6.05;;;27.60;43.80;;;;;;5035042;28;20116;-72
2023/10/03 06:15:12;;;;;;;13.27;5.35;;;27.50;43.90;;;;;;5049605;28;20063;-73
2023/10/03 06:17:40;;;;;;;;;;;27.40;43.90;;;;;;5054252;28;20032;-72
2023/10/03 06:20:09;;;;;;;14.25;5.70;;;27.40;43.80;;;;;;5049679;28;19909;-73
2023/10/03 06:22:39;;;;;;;;;;;27.40;44.40;;;;;;5054424;28;20040;-73
2023/10/03 06:25:07;;;;;;;10.55;4.78;;;27.30;44.20;;;;;;5053906;28;19999;-73
2023/10/03 06:27:34;;;;;;;14.88;5.40;;;27.30;44.70;;;;;;5054275;28;20479;-72
2023/10/03 06:30:02;;;;;;;13.20;4.70;;;27.30;44.40;;;;;;5019824;28;20033;-73
2023/10/03 06:32:29;;;;;;;19.48;5.70;;;27.20;44.70;;;;;;5036507;28;20057;-72
2023/10/03 06:34:56;;;;;;;16.45;5.32;;;27.20;45.00;;;;;;5051789;28;20498;-73
2023/10/03 06:37:24;;;;;;;12.45;4.75;;;27.10;44.90;;;;;;5053937;28;20044;-73
2023/10/03 06:39:51;;;;;;;10.10;5.30;;;27.10;44.70;;;;;;5054012;28;20076;-73
2023/10/03 06:42:18;;;;;;;13.77;5.00;;;27.10;44.50;;;;;;5053677;28;20483;-72
2023/10/03 06:44:46;;;;;;;18.15;5.93;;;27.10;44.20;;;;;;5053398;28;20522;-73
2023/10/03 06:47:13;;;;;;;14.27;5.60;;;27.10;44.30;;;;;;5053386;28;20120;-72
2023/10/03 06:49:40;;;;;;;16.92;4.95;;;27.10;43.90;;;;;;5051099;28;20396;-72
2023/10/03 06:52:08;;;;;;;17.85;5.65;;;27.00;44.60;;;;;;5053557;28;20041;-73
2023/10/03 06:54:35;;;;;;;14.85;5.13;;;27.00;44.50;;;;;;5035934;28;20033;-72
2023/10/03 06:57:03;;;;;;;16.23;5.43;;;27.00;44.20;;;;;;5053319;28;20039;-71
2023/10/03 06:59:33;;;;;;;16.10;5.30;;;27.00;45.50;;;;;;5049723;28;20100;-71
2023/10/03 07:02:00;;;;;;;10.57;4.90;;;27.00;45.30;;;;;;5048961;28;20111;-71
2023/10/03 07:04:27;;;;;;;13.48;5.10;;;26.90;45.10;;;;;;5045272;28;20052;-73
2023/10/03 07:06:55;;;;;;;16.13;5.50;;;26.90;44.60;;;;;;5049678;28;20047;-73
2023/10/03 07:09:22;;;;;;;14.93;5.30;;;26.90;44.20;;;;;;5050532;28;20087;-72
2023/10/03 07:11:50;;;;;;;16.35;5.88;;;26.90;44.60;;;;;;5050732;28;20403;-73
2023/10/03 07:14:17;;;;;;;12.18;4.90;;;26.80;44.10;;;;;;5050073;28;20059;-72
2023/10/03 07:16:48;;;;;;;11.75;6.13;;;26.80;44.60;;;;;;5050024;28;20626;-72
2023/10/03 07:19:16;;;;;;;14.10;6.38;;;26.80;44.90;;;;;;5049697;28;20051;-71
2023/10/03 07:21:43;;;;;;;17.27;6.80;;;26.80;45.60;;;;;;5049074;28;20029;-71
2023/10/03 07:24:12;;;;;;;18.80;7.10;;;26.80;46.30;;;;;;5049572;28;20045;-71
2023/10/03 07:26:40;;;;;;;19.60;6.32;;;26.70;47.20;;;;;;5032535;28;20048;-71
2023/10/03 07:29:07;;;;;;;21.52;7.63;;;26.70;47.20;;;;;;5050128;28;20029;-73
2023/10/03 07:31:34;;;;;;;18.70;6.53;;;26.60;47.90;;;;;;5050141;28;20039;-73
2023/10/03 07:34:02;;;;;;;17.60;6.63;;;26.60;48.60;;;;;;5050047;28;20113;-73
2023/10/03 07:36:30;;;;;;;17.67;7.05;;;26.50;49.20;;;;;;5049850;28;20040;-71
2023/10/03 07:38:57;;;;;;;22.02;7.22;;;26.50;49.10;;;;;;5049841;28;20549;-72
2023/10/03 07:41:28;;;;;;;17.02;7.30;;;26.40;49.80;;;;;;5049056;28;20048;-71
2023/10/03 07:43:55;;;;;;;22.67;7.57;;;26.40;50.20;;;;;;5049745;28;20411;-72
2023/10/03 07:46:25;;;;;;;22.73;7.75;;;26.40;50.60;;;;;;5049733;28;20103;-72
2023/10/03 07:48:52;;;;;;;20.95;7.55;;;26.30;50.90;;;;;;5047513;28;20476;-72
2023/10/03 07:51:25;;;;;;;20.38;7.13;;;26.30;51.50;;;;;;5049355;28;20044;-72
2023/10/03 07:53:53;;;;;;;22.85;7.57;;;26.30;51.70;;;;;;5049767;28;20043;-71
2023/10/03 07:56:53;;;;;;;17.10;6.80;;;26.20;52.00;;;;;;5049504;28;20044;-73
2023/10/03 07:59:14;;;;;;;19.15;6.68;;;26.20;52.50;;;;;;5046232;28;20115;-72
2023/10/03 08:01:42;;;;;;;21.17;7.32;;;26.10;52.60;;;;;;5048201;28;20040;-74
2023/10/03 08:04:12;;;;;;;19.17;6.82;;;26.10;52.40;;;;;;5048207;28;20546;-75
2023/10/03 08:06:42;;;;;;;22.02;7.35;;;26.00;53.20;;;;;;5049595;28;20065;-71
2023/10/03 08:09:10;;;;;;;20.65;7.57;;;26.10;53.30;;;;;;5032218;28;20494;-70
2023/10/03 08:11:38;;;;;;;21.80;7.10;;;26.00;53.80;;;;;;5049644;28;20391;-69
2023/10/03 08:14:13;;;;;;;27.63;8.18;;;26.00;53.80;;;;;;5048329;28;20032;-69
2023/10/03 08:16:47;;;;;;;23.55;7.53;;;25.90;54.40;;;;;;5049406;28;20502;-71
2023/10/03 08:19:26;;;;;;;17.98;7.13;;;25.90;54.60;;;;;;5055345;28;20065;-70
2023/10/03 08:21:54;;;;;;;19.95;6.85;;;25.80;55.40;;;;;;5049293;28;20052;-70
2023/10/03 08:24:30;;;;;;;28.20;7.90;;;25.80;55.70;;;;;;5049069;28;20037;-70
2023/10/03 08:27:02;;;;;;;27.02;7.80;;;25.70;56.40;;;;;;5048996;28;20044;-70
2023/10/03 08:29:29;;;;;;;21.25;7.45;;;25.60;56.70;;;;;;5048722;28;20041;-70
2023/10/03 08:31:57;;;;;;;23.83;7.95;;;25.60;56.90;;;;;;5049060;28;20040;-69
2023/10/03 08:34:28;;;;;;;19.42;7.70;;;25.50;57.00;;;;;;5049306;28;20044;-72
2023/10/03 08:37:02;;;;;;;22.08;7.28;;;25.50;57.00;;;;;;5049387;28;20087;-72
2023/10/03 08:39:32;;;;;;;23.50;8.07;;;25.50;56.70;;;;;;5048022;28;20088;-72
2023/10/03 08:42:17;;;;;;;18.65;7.28;;;25.40;57.10;;;;;;5034233;28;20068;-70
2023/10/03 08:44:51;;;;;;;23.48;7.35;;;25.40;57.00;;;;;;5030197;28;20073;-70
2023/10/03 08:47:33;;;;;;;19.63;6.75;;;25.40;57.20;;;;;;5048844;28;20040;-71
2023/10/03 08:50:29;;;;;;;20.30;7.10;;;25.40;57.00;;;;;;5026482;28;20556;-71
2023/10/03 08:53:12;;;;;;;17.65;6.55;;;25.40;57.20;;;;;;5028708;28;20049;-72
2023/10/03 08:55:46;;;;;;;20.00;7.03;;;25.40;57.10;;;;;;5013781;28;20133;-70
2023/10/03 08:58:14;;;;;;;26.00;7.60;;;25.30;57.20;;;;;;5021561;28;20048;-69
2023/10/03 09:00:49;;;;;;;20.10;7.40;;;25.30;57.50;;;;;;5048001;28;20025;-71
2023/10/03 09:03:18;;;;;;;23.35;7.15;;;25.30;58.10;;;;;;5048770;28;20060;-71
2023/10/03 09:05:46;;;;;;;29.17;7.47;;;25.30;57.90;;;;;;5048949;28;20049;-69
2023/10/03 09:08:14;;;;;;;22.95;7.63;;;25.30;58.30;;;;;;5031170;28;20545;-68
2023/10/03 09:11:01;;;;;;;24.52;8.10;;;25.30;58.20;;;;;;5047931;28;20056;-69
2023/10/03 09:13:29;;;;;;;30.85;8.40;;;25.30;58.20;;;;;;5048895;28;20158;-70
2023/10/03 09:16:00;;;;;;;25.02;7.90;;;25.20;58.30;;;;;;5046914;28;20416;-70
2023/10/03 09:18:39;;;;;;;24.67;7.90;;;25.20;58.30;;;;;;5048871;28;20043;-71
2023/10/03 09:21:07;;;;;;;21.77;7.20;;;25.20;58.50;;;;;;5049078;28;20029;-70
2023/10/03 09:23:39;;;;;;;24.60;7.30;;;25.20;58.30;;;;;;5034645;28;20037;-69
2023/10/03 09:26:07;;;;;;;25.25;7.35;;;25.20;58.30;;;;;;5034893;28;20553;-69
2023/10/03 09:28:35;;;;;;;18.70;6.93;;;25.10;58.30;;;;;;5052608;28;20033;-70
2023/10/03 09:31:08;;;;;;;24.08;7.80;;;25.10;58.30;;;;;;5051628;28;20040;-68
2023/10/03 09:33:40;;;;;;;20.50;7.25;;;25.10;58.40;;;;;;5051391;28;20407;-70
2023/10/03 09:36:08;;;;;;;27.92;8.25;;;25.10;58.20;;;;;;5034062;28;20132;-70
2023/10/03 09:38:45;;;;;;;31.73;8.27;;;25.10;58.30;;;;;;5052023;28;20099;-69
2023/10/03 09:41:21;;;;;;;22.20;7.00;;;25.10;58.30;;;;;;5052197;28;20033;-70
2023/10/03 09:43:50;;;;;;;22.83;7.00;;;25.10;58.30;;;;;;5052158;28;20029;-69
2023/10/03 09:46:24;;;;;;;26.10;7.45;;;25.10;58.40;;;;;;5052260;28;20047;-70
2023/10/03 09:49:07;;;;;;;23.17;6.43;;;25.10;57.50;;;;;;5049475;28;20033;-68
2023/10/03 09:51:51;;;;;;;24.80;7.63;;;25.10;57.60;;;;;;5047386;28;20052;-69
2023/10/03 09:54:30;;;;;;;24.83;7.28;;;25.10;57.70;;;;;;5052085;28;20052;-69
2023/10/03 09:56:58;;;;;;;26.80;6.88;;;25.10;58.00;;;;;;5049986;28;20033;-69
2023/10/03 09:59:25;;;;;;;23.30;7.78;;;25.10;58.30;;;;;;5051694;28;20044;-69
2023/10/03 10:01:55;;;;;;;20.05;7.28;;;25.10;58.50;;;;;;5051213;28;20060;-69
2023/10/03 10:04:24;;;;;;;24.00;7.60;;;25.10;58.90;;;;;;5018619;28;20435;-70
2023/10/03 10:06:59;;;;;;;25.25;7.63;;;25.00;59.10;;;;;;5034020;28;20111;-69
2023/10/03 10:09:30;;;;;;;22.20;7.05;;;25.00;59.70;;;;;;5052162;28;20036;-69
2023/10/03 10:12:18;;;;;;;25.73;7.78;;;24.90;59.90;;;;;;5033687;28;20484;-69
2023/10/03 10:15:14;;;;;;;23.42;7.50;;;24.90;60.00;;;;;;5028885;28;20400;-69
2023/10/03 10:17:54;;;;;;;25.40;7.53;;;24.80;60.10;;;;;;5034867;28;20462;-70
2023/10/03 10:20:43;;;;;;;22.38;7.80;;;24.80;60.50;;;;;;5051325;28;20491;-69
2023/10/03 10:25:42;;;;;;;26.02;7.78;;;24.80;60.10;;;;;;5033256;28;20127;-69
2023/10/03 10:28:11;;;;;;;22.08;7.38;;;24.80;59.90;;;;;;5051621;28;20451;-69
2023/10/03 10:30:44;;;;;;;32.25;7.75;;;24.80;60.00;;;;;;5033853;28;20434;-69
2023/10/03 10:33:18;;;;;;;26.63;7.90;;;24.80;60.50;;;;;;5048358;28;20092;-70
2023/10/03 10:35:55;;;;;;;24.15;7.20;;;24.70;61.00;;;;;;5047578;28;20041;-69
2023/10/03 10:38:32;;;;;;;27.15;8.05;;;24.70;60.90;;;;;;5047017;28;20040;-69
2023/10/03 10:41:17;;;;;;;26.83;8.20;;;24.70;60.90;;;;;;5049717;28;20051;-69
2023/10/03 10:44:10;;;;;;;26.90;8.02;;;24.70;61.00;;;;;;5050140;28;20036;-69
2023/10/03 10:46:52;;;;;;;20.13;7.00;;;24.70;61.00;;;;;;5032774;28;20041;-69
2023/10/03 10:49:34;;;;;;;23.92;7.53;;;24.70;61.00;;;;;;5032431;28;20087;-69
2023/10/03 10:52:12;;;;;;;29.70;7.85;;;24.60;61.40;;;;;;5042233;28;20049;-69
2023/10/03 10:54:44;;;;;;;22.50;7.63;;;24.60;61.80;;;;;;5029735;28;20036;-69
2023/10/03 10:57:15;;;;;;;23.83;7.47;;;24.60;61.90;;;;;;5030013;28;20516;-70
2023/10/03 10:59:43;;;;;;;26.00;7.53;;;24.50;62.00;;;;;;5030209;28;20037;-68
2023/10/03 11:02:27;;;;;;;25.17;7.30;;;24.50;61.90;;;;;;5030321;28;20030;-70
2023/10/03 11:04:55;;;;;;;28.02;7.47;;;24.50;61.80;;;;;;5030311;28;20046;-70
2023/10/03 11:07:23;;;;;;;24.27;7.40;;;24.50;61.90;;;;;;5012475;28;20403;-70
2023/10/03 11:09:52;;;;;;;25.52;7.55;;;24.40;61.50;;;;;;5029541;28;20416;-68
2023/10/03 11:12:26;;;;;;;23.05;7.07;;;24.40;61.40;;;;;;5030153;28;20400;-68
2023/10/03 11:14:55;;;;;;;24.73;6.90;;;24.40;61.30;;;;;;5030372;28;20034;-69
2023/10/03 11:17:25;;;;;;;23.25;6.88;;;24.50;61.10;;;;;;5029597;28;20472;-68
2023/10/03 11:19:56;;;;;;;26.75;7.40;;;24.50;60.80;;;;;;4995239;28;20037;-68
2023/10/03 11:22:24;;;;;;;19.95;7.03;;;24.40;60.90;;;;;;5012319;28;20041;-69
2023/10/03 11:24:51;;;;;;;26.85;8.18;;;24.40;60.80;;;;;;5030529;28;20049;-69
2023/10/03 11:27:26;;;;;;;23.77;7.00;;;24.40;60.60;;;;;;5030345;28;20041;-69
2023/10/03 11:29:54;;;;;;;24.48;6.78;;;24.40;60.60;;;;;;5011820;28;20416;-69
2023/10/03 11:32:32;;;;;;;25.27;7.30;;;24.50;60.90;;;;;;5026304;28;20153;-70
2023/10/03 11:35:13;;;;;;;24.45;6.65;;;24.40;60.80;;;;;;5011828;28;20503;-70
2023/10/03 11:37:44;;;;;;;23.92;7.10;;;24.40;61.00;;;;;;5025152;28;20088;-68
2023/10/03 11:40:19;;;;;;;22.92;6.93;;;24.40;60.80;;;;;;5029368;28;20034;-68
2023/10/03 11:42:59;;;;;;;25.83;7.43;;;24.40;60.70;;;;;;5028782;28;20068;-68
2023/10/03 11:45:30;;;;;;;25.33;7.03;;;24.40;60.60;;;;;;5032145;28;20399;-68
2023/10/03 11:47:58;;;;;;;23.30;7.22;;;24.40;60.80;;;;;;5014787;28;20108;-68
2023/10/03 11:50:26;;;;;;;23.30;7.82;;;24.30;60.80;;;;;;5031674;28;20037;-68
2023/10/03 11:52:56;;;;;;;19.48;7.20;;;24.40;61.10;;;;;;5046023;28;20041;-68
2023/10/03 11:55:25;;;;;;;26.85;6.57;;;24.30;61.10;;;;;;5051199;28;20041;-69
2023/10/03 12:00:46;;;;;;;26.58;7.45;;;24.30;61.40;;;;;;5035263;28;20536;-68
2023/10/03 12:06:05;;;;;;;22.02;6.90;;;24.30;61.00;;;;;;5049589;28;20132;-68
2023/10/03 12:08:34;;;;;;;24.15;7.43;;;24.30;61.10;;;;;;5052121;28;20033;-69
2023/10/03 12:11:05;;;;;;;23.60;7.10;;;24.30;61.10;;;;;;5034460;28;20037;-68
2023/10/03 12:13:32;;;;;;;26.15;7.70;;;24.30;61.10;;;;;;5051794;28;20037;-69
2023/10/03 12:15:59;;;;;;;19.63;7.18;;;24.30;61.40;;;;;;5051859;28;20104;-68
2023/10/03 12:18:27;;;;;;;35.47;8.27;;;24.30;61.40;;;;;;5051960;28;20526;-68
2023/10/03 12:20:55;;;;;;;23.23;7.00;;;24.20;61.50;;;;;;5050698;28;20549;-68
2023/10/03 12:23:22;;;;;;;27.02;7.88;;;24.20;61.40;;;;;;5051125;28;20487;-68
2023/10/03 12:25:49;;;;;;;16.95;7.13;;;24.20;61.50;;;;;;5051803;28;20045;-68
2023/10/03 12:28:17;;;;;;;29.05;7.43;;;24.20;61.40;;;;;;5052083;28;20026;-68
2023/10/03 12:30:44;;;;;;;26.15;7.05;;;24.20;61.40;;;;;;5051401;28;20083;-68
2023/10/03 12:33:16;;;;;;;27.55;6.65;;;24.10;61.60;;;;;;5051488;28;20037;-68
2023/10/03 12:35:43;;;;;;;32.53;7.63;;;24.10;61.90;;;;;;5051043;28;20036;-68
2023/10/03 12:38:11;;;;;;;23.38;7.18;;;24.10;61.80;;;;;;5051533;28;20037;-68
2023/10/03 12:40:38;;;;;;;23.13;7.63;;;24.00;61.70;;;;;;5051355;28;20097;-68
2023/10/03 12:43:05;;;;;;;27.35;7.75;;;24.10;61.70;;;;;;5052030;28;20089;-68
2023/10/03 12:45:32;;;;;;;23.08;7.53;;;24.10;61.60;;;;;;5049891;28;20475;-68
2023/10/03 12:48:00;;;;;;;28.45;7.68;;;24.00;61.50;;;;;;5050962;28;20079;-67
2023/10/03 12:50:27;;;;;;;29.58;7.28;;;24.00;61.60;;;;;;5051199;28;20037;-68
